createdAt,value
2024-01-27T00:02:00.322Z,11.84
2024-01-27T00:04:03.541Z,10.87
2024-01-27T00:06:05.402Z,10.04
2024-01-27T00:08:07.467Z,9.36
2024-01-27T00:10:09.410Z,8.83
2024-01-27T00:12:11.205Z,8.53
2024-01-27T00:14:12.822Z,9.48
2024-01-27T00:16:14.511Z,10.86
2024-01-27T00:18:17.831Z,11.68
2024-01-27T00:20:19.490Z,11.13
2024-01-27T00:22:22.216Z,10.28
2024-01-27T00:24:23.798Z,9.55
2024-01-27T00:26:25.387Z,8.94
2024-01-27T00:28:27.055Z,8.46
2024-01-27T00:30:28.782Z,8.06
2024-01-27T00:32:30.506Z,7.83
2024-01-27T00:34:32.526Z,8.73
2024-01-27T00:36:34.390Z,10.20
2024-01-27T00:38:36.080Z,10.93
2024-01-27T00:40:37.694Z,10.50
2024-01-27T00:42:39.253Z,9.69
2024-01-27T00:44:41.001Z,9.01
2024-01-27T00:46:42.580Z,8.45
2024-01-27T00:48:44.305Z,7.99
2024-01-27T00:50:45.997Z,7.66
2024-01-27T00:52:47.804Z,7.40
2024-01-27T00:54:49.778Z,7.17
2024-01-27T00:56:51.365Z,6.98
2024-01-27T00:58:53.110Z,6.83
2024-01-27T01:00:54.764Z,6.71
2024-01-27T01:02:56.361Z,7.35
2024-01-27T01:04:58.139Z,8.93
2024-01-27T01:07:00.588Z,10.34
2024-01-27T01:09:02.226Z,11.03
2024-01-27T01:11:04.022Z,10.40
2024-01-27T01:13:05.648Z,9.46
2024-01-27T01:15:07.963Z,8.70
2024-01-27T01:17:09.634Z,8.11
2024-01-27T01:19:11.287Z,7.66
2024-01-27T01:21:13.135Z,7.29
2024-01-27T01:23:15.974Z,7.01
2024-01-27T01:25:17.670Z,7.48
2024-01-27T01:27:20.484Z,9.03
2024-01-27T01:29:23.410Z,10.30
2024-01-27T01:31:25.157Z,10.52
2024-01-27T01:33:26.916Z,9.83
2024-01-27T01:35:28.691Z,9.03
2024-01-27T01:37:30.217Z,8.31
2024-01-27T01:39:31.940Z,7.81
2024-01-27T01:41:33.948Z,7.42
2024-01-27T01:43:35.611Z,7.11
2024-01-27T01:45:37.185Z,6.86
2024-01-27T01:47:38.976Z,6.64
2024-01-27T01:49:41.752Z,6.73
2024-01-27T01:51:43.539Z,8.15
2024-01-27T01:53:49.009Z,9.73
2024-01-27T01:55:51.453Z,10.62
2024-01-27T01:57:53.103Z,10.24
2024-01-27T01:59:54.908Z,9.38
2024-01-27T02:01:56.760Z,8.61
2024-01-27T02:03:58.857Z,8.05
2024-01-27T02:06:00.509Z,7.63
2024-01-27T02:08:05.426Z,7.30
2024-01-27T02:10:15.847Z,7.01
2024-01-27T02:12:17.631Z,6.72
2024-01-27T02:14:19.546Z,6.84
2024-01-27T02:16:21.415Z,8.23
2024-01-27T02:18:23.156Z,9.50
2024-01-27T02:20:24.880Z,9.40
2024-01-27T02:22:26.441Z,8.66
2024-01-27T02:24:29.928Z,8.01
2024-01-27T02:26:31.689Z,7.49
2024-01-27T02:28:34.589Z,7.07
2024-01-27T02:30:36.419Z,6.73
2024-01-27T02:32:38.175Z,6.44
2024-01-27T02:34:39.875Z,6.46
2024-01-27T02:36:41.710Z,7.80
2024-01-27T02:38:43.349Z,9.35
2024-01-27T02:40:44.884Z,10.19
2024-01-27T02:42:46.750Z,9.84
2024-01-27T02:44:48.419Z,9.03
2024-01-27T02:46:50.149Z,8.29
2024-01-27T02:48:52.084Z,7.68
2024-01-27T02:50:53.979Z,7.21
2024-01-27T02:52:55.537Z,6.84
2024-01-27T02:54:57.372Z,6.51
2024-01-27T02:56:59.147Z,6.24
2024-01-27T02:59:00.760Z,6.01
2024-01-27T03:01:02.350Z,6.04
2024-01-27T03:03:04.368Z,7.42
2024-01-27T03:05:06.377Z,9.06
2024-01-27T03:07:08.000Z,10.06
2024-01-27T03:09:09.645Z,9.64
2024-01-27T03:11:11.309Z,8.79
2024-01-27T03:13:12.885Z,8.02
2024-01-27T03:15:14.644Z,7.46
2024-01-27T03:17:16.988Z,7.02
2024-01-27T03:19:19.006Z,6.68
2024-01-27T03:21:20.756Z,6.39
2024-01-27T03:23:22.661Z,6.15
2024-01-27T03:25:26.952Z,5.96
2024-01-27T03:27:28.734Z,5.81
2024-01-27T03:29:30.507Z,5.69
2024-01-27T03:31:33.190Z,5.95
2024-01-27T03:33:35.053Z,7.45
2024-01-27T03:35:36.820Z,8.75
2024-01-27T03:37:38.560Z,8.63
2024-01-27T03:39:42.934Z,8.01
2024-01-27T03:41:44.701Z,7.42
2024-01-27T03:43:46.497Z,6.98
2024-01-27T03:45:48.307Z,6.63
2024-01-27T03:47:51.363Z,6.34
2024-01-27T03:49:53.454Z,6.12
2024-01-27T03:51:55.977Z,5.95
2024-01-27T03:53:57.826Z,5.81
2024-01-27T03:56:00.913Z,5.69
2024-01-27T03:58:02.830Z,5.59
2024-01-27T04:00:05.571Z,5.51
2024-01-27T04:02:07.200Z,5.44
2024-01-27T04:04:09.025Z,5.39
2024-01-27T04:06:11.042Z,5.34
2024-01-27T04:08:12.947Z,5.31
2024-01-27T04:10:14.558Z,5.44
2024-01-27T04:12:16.360Z,6.82
2024-01-27T04:14:18.105Z,8.58
2024-01-27T04:16:19.860Z,9.75
2024-01-27T04:18:21.651Z,9.53
2024-01-27T04:20:23.641Z,8.78
2024-01-27T04:22:25.325Z,8.10
2024-01-27T04:24:27.034Z,7.56
2024-01-27T04:26:29.046Z,7.15
2024-01-27T04:28:31.726Z,6.83
2024-01-27T04:30:33.483Z,6.55
2024-01-27T04:32:36.734Z,6.31
2024-01-27T04:34:38.622Z,6.13
2024-01-27T04:36:40.543Z,5.95
2024-01-27T04:38:45.007Z,5.78
2024-01-27T04:40:46.792Z,5.64
2024-01-27T04:42:48.424Z,5.53
2024-01-27T04:44:50.158Z,5.44
2024-01-27T04:46:51.857Z,5.39
2024-01-27T04:48:53.726Z,6.18
2024-01-27T04:50:55.572Z,7.85
2024-01-27T04:52:57.392Z,8.95
2024-01-27T04:54:59.658Z,8.66
2024-01-27T04:57:01.194Z,7.88
2024-01-27T04:59:02.731Z,7.19
2024-01-27T05:01:04.562Z,6.72
2024-01-27T05:03:08.772Z,6.35
2024-01-27T05:05:10.408Z,6.03
2024-01-27T05:07:12.207Z,6.00
2024-01-27T05:09:14.148Z,7.26
2024-01-27T05:11:18.810Z,8.79
2024-01-27T05:13:20.379Z,9.65
2024-01-27T05:15:22.044Z,9.21
2024-01-27T05:17:23.796Z,8.32
2024-01-27T05:19:25.588Z,7.59
2024-01-27T05:21:27.430Z,7.02
2024-01-27T05:23:29.171Z,6.55
2024-01-27T05:25:30.844Z,6.16
2024-01-27T05:27:32.637Z,5.86
2024-01-27T05:29:34.404Z,5.80
2024-01-27T05:31:36.677Z,7.04
2024-01-27T05:33:39.318Z,8.60
2024-01-27T05:35:41.141Z,9.53
2024-01-27T05:37:42.714Z,9.19
2024-01-27T05:39:44.635Z,8.35
2024-01-27T05:41:46.272Z,7.58
2024-01-27T05:43:47.962Z,6.99
2024-01-27T05:45:50.424Z,6.54
2024-01-27T05:47:52.133Z,6.15
2024-01-27T05:49:53.889Z,5.86
2024-01-27T05:51:55.699Z,5.62
2024-01-27T05:53:57.836Z,5.44
2024-01-27T05:55:59.611Z,5.56
2024-01-27T05:58:01.223Z,6.99
2024-01-27T06:00:02.970Z,8.56
2024-01-27T06:02:04.826Z,9.59
2024-01-27T06:04:06.574Z,9.25
2024-01-27T06:06:08.476Z,8.39
2024-01-27T06:08:10.657Z,7.65
2024-01-27T06:10:12.380Z,7.10
2024-01-27T06:12:14.009Z,6.64
2024-01-27T06:14:15.675Z,6.26
2024-01-27T06:16:20.361Z,5.97
2024-01-27T06:18:22.181Z,5.69
2024-01-27T06:20:24.060Z,5.47
2024-01-27T06:22:25.665Z,5.47
2024-01-27T06:24:27.283Z,6.75
2024-01-27T06:26:28.923Z,8.26
2024-01-27T06:28:30.443Z,9.29
2024-01-27T06:30:33.473Z,8.92
2024-01-27T06:32:35.159Z,8.07
2024-01-27T06:34:36.899Z,7.36
2024-01-27T06:36:38.851Z,6.82
2024-01-27T06:38:40.620Z,6.39
2024-01-27T06:40:42.500Z,6.06
2024-01-27T06:42:44.174Z,5.80
2024-01-27T06:44:45.752Z,5.57
2024-01-27T06:46:51.266Z,5.40
2024-01-27T06:48:53.122Z,5.26
2024-01-27T06:50:55.074Z,5.45
2024-01-27T06:52:56.752Z,6.86
2024-01-27T06:54:58.458Z,8.27
2024-01-27T06:57:04.148Z,8.41
2024-01-27T06:59:05.986Z,7.74
2024-01-27T07:01:10.645Z,7.10
2024-01-27T07:03:13.992Z,6.57
2024-01-27T07:05:16.406Z,6.17
2024-01-27T07:07:18.717Z,5.88
2024-01-27T07:09:21.093Z,5.62
2024-01-27T07:11:23.049Z,5.42
2024-01-27T07:13:24.580Z,5.25
2024-01-27T07:15:26.272Z,5.38
2024-01-27T07:17:28.772Z,6.77
2024-01-27T07:19:30.577Z,8.13
2024-01-27T07:21:32.893Z,8.14
2024-01-27T07:23:36.697Z,7.51
2024-01-27T07:25:38.507Z,6.89
2024-01-27T07:27:40.630Z,6.38
2024-01-27T07:29:42.416Z,5.99
2024-01-27T07:31:44.178Z,5.69
2024-01-27T07:33:45.999Z,5.47
2024-01-27T07:35:47.817Z,5.28
2024-01-27T07:37:49.534Z,5.35
2024-01-27T07:39:51.545Z,6.69
2024-01-27T07:41:53.371Z,8.29
2024-01-27T07:43:57.874Z,9.16
2024-01-27T07:45:59.629Z,8.72
2024-01-27T07:48:02.526Z,7.84
2024-01-27T07:50:04.604Z,7.14
2024-01-27T07:52:06.739Z,6.68
2024-01-27T07:54:08.978Z,6.27
2024-01-27T07:56:10.690Z,5.96
2024-01-27T07:58:12.410Z,5.70
2024-01-27T08:00:14.762Z,5.49
2024-01-27T08:02:16.342Z,5.34
2024-01-27T08:04:18.292Z,5.21
2024-01-27T08:06:28.763Z,5.11
2024-01-27T08:08:31.219Z,5.03
2024-01-27T08:10:32.977Z,4.98
2024-01-27T08:12:34.739Z,4.94
2024-01-27T08:14:36.925Z,5.34
2024-01-27T08:16:38.634Z,6.99
2024-01-27T08:18:41.193Z,8.21
2024-01-27T08:20:43.294Z,8.04
2024-01-27T08:22:44.976Z,7.43
2024-01-27T08:24:46.785Z,6.88
2024-01-27T08:26:49.603Z,6.47
2024-01-27T08:28:51.329Z,6.14
2024-01-27T08:30:53.096Z,5.88
2024-01-27T08:32:55.002Z,5.67
2024-01-27T08:34:57.713Z,5.52
2024-01-27T08:37:02.397Z,5.40
2024-01-27T08:39:04.516Z,5.31
2024-01-27T08:41:06.266Z,5.25
2024-01-27T08:43:07.947Z,5.20
2024-01-27T08:45:09.959Z,5.18
2024-01-27T08:47:11.741Z,5.14
2024-01-27T08:49:13.572Z,5.11
2024-01-27T08:51:17.421Z,5.08
2024-01-27T08:53:19.255Z,5.05
2024-01-27T08:55:20.980Z,5.02
2024-01-27T08:57:22.610Z,4.98
2024-01-27T08:59:24.347Z,4.97
2024-01-27T09:01:26.050Z,4.94
2024-01-27T09:03:27.863Z,4.93
2024-01-27T09:05:29.906Z,4.93
2024-01-27T09:07:31.750Z,4.91
2024-01-27T09:09:33.543Z,4.89
2024-01-27T09:11:36.138Z,4.89
2024-01-27T09:13:37.834Z,4.88
2024-01-27T09:15:39.818Z,4.85
2024-01-27T09:17:43.751Z,5.05
2024-01-27T09:19:45.401Z,6.52
2024-01-27T09:21:47.153Z,7.83
2024-01-27T09:23:48.743Z,7.68
2024-01-27T09:25:50.297Z,7.01
2024-01-27T09:27:51.993Z,6.49
2024-01-27T09:29:53.635Z,6.06
2024-01-27T09:31:55.261Z,5.72
2024-01-27T09:33:57.605Z,5.43
2024-01-27T09:35:59.361Z,5.18
2024-01-27T09:38:01.155Z,5.23
2024-01-27T09:40:04.161Z,6.54
2024-01-27T09:42:09.165Z,8.05
2024-01-27T09:44:13.598Z,9.15
2024-01-27T09:46:16.754Z,9.20
2024-01-27T09:48:19.114Z,8.32
2024-01-27T09:50:23.136Z,7.46
2024-01-27T09:52:25.653Z,6.73
2024-01-27T09:54:28.606Z,6.18
2024-01-27T09:56:32.008Z,5.73
2024-01-27T09:58:34.056Z,5.64
2024-01-27T10:00:38.092Z,6.83
2024-01-27T10:02:43.784Z,8.24
2024-01-27T10:04:49.686Z,8.92
2024-01-27T10:06:52.152Z,8.24
2024-01-27T10:08:56.213Z,7.35
2024-01-27T10:10:58.275Z,6.62
2024-01-27T10:13:05.011Z,6.02
2024-01-27T10:15:07.987Z,5.56
2024-01-27T10:17:13.468Z,5.55
2024-01-27T10:19:22.460Z,6.87
2024-01-27T10:21:25.816Z,8.20
2024-01-27T10:23:28.224Z,8.89
2024-01-27T10:25:29.937Z,8.21
2024-01-27T10:27:31.637Z,7.06
2024-01-27T10:29:33.949Z,6.16
2024-01-27T10:31:37.955Z,5.82
2024-01-27T10:33:41.269Z,6.80
2024-01-27T10:35:44.700Z,8.07
2024-01-27T10:37:46.241Z,8.98
2024-01-27T10:39:48.235Z,9.24
2024-01-27T10:41:51.043Z,8.35
2024-01-27T10:43:53.838Z,7.42
2024-01-27T10:45:57.603Z,6.64
2024-01-27T10:48:01.453Z,6.02
2024-01-27T10:50:03.938Z,5.74
2024-01-27T10:52:12.472Z,6.78
2024-01-27T10:54:19.391Z,7.87
2024-01-27T10:56:23.135Z,8.10
2024-01-27T10:58:25.988Z,7.28
2024-01-27T11:00:28.227Z,6.42
2024-01-27T11:02:34.035Z,5.78
2024-01-27T11:04:37.619Z,5.59
2024-01-27T11:06:40.150Z,6.67
2024-01-27T11:08:43.953Z,8.07
2024-01-27T11:10:47.159Z,8.75
2024-01-27T11:12:49.864Z,8.31
2024-01-27T11:14:54.245Z,7.40
2024-01-27T11:16:59.074Z,6.60
2024-01-27T11:19:01.101Z,5.95
2024-01-27T11:21:03.026Z,6.13
2024-01-27T11:23:12.065Z,7.35
2024-01-27T11:25:13.908Z,8.52
2024-01-27T11:27:15.846Z,8.93
2024-01-27T11:29:21.457Z,8.21
2024-01-27T11:31:23.293Z,7.28
2024-01-27T11:33:28.091Z,6.53
2024-01-27T11:35:30.216Z,6.13
2024-01-27T11:37:32.627Z,7.14
2024-01-27T11:39:34.401Z,8.44
2024-01-27T11:41:36.039Z,9.27
2024-01-27T11:43:37.653Z,9.25
2024-01-27T11:45:39.227Z,8.32
2024-01-27T11:47:41.830Z,7.33
2024-01-27T11:49:46.034Z,6.55
2024-01-27T11:51:47.945Z,6.33
2024-01-27T11:53:49.933Z,7.43
2024-01-27T11:56:01.644Z,8.73
2024-01-27T11:58:03.348Z,9.40
2024-01-27T12:00:05.967Z,8.72
2024-01-27T12:02:07.833Z,7.64
2024-01-27T12:04:10.694Z,6.83
2024-01-27T12:06:14.631Z,6.17
2024-01-27T12:08:18.379Z,6.25
2024-01-27T12:10:21.172Z,7.52
2024-01-27T12:12:22.853Z,8.76
2024-01-27T12:14:24.560Z,9.47
2024-01-27T12:16:26.310Z,9.08
2024-01-27T12:18:28.914Z,8.04
2024-01-27T12:20:31.055Z,7.03
2024-01-27T12:22:33.940Z,6.28
2024-01-27T12:24:35.628Z,6.01
2024-01-27T12:26:40.512Z,7.13
2024-01-27T12:28:42.349Z,8.40
2024-01-27T12:30:44.279Z,9.33
2024-01-27T12:32:45.963Z,9.69
2024-01-27T12:34:49.576Z,8.98
2024-01-27T12:36:53.179Z,7.92
2024-01-27T12:39:03.025Z,7.06
2024-01-27T12:41:04.788Z,6.37
2024-01-27T12:43:06.448Z,6.96
2024-01-27T12:45:08.958Z,8.39
2024-01-27T12:47:14.455Z,9.31
2024-01-27T12:49:16.116Z,9.27
2024-01-27T12:51:17.945Z,8.29
2024-01-27T12:53:19.558Z,7.40
2024-01-27T12:55:21.265Z,6.63
2024-01-27T12:57:22.894Z,6.27
2024-01-27T12:59:25.023Z,7.31
2024-01-27T13:01:26.582Z,8.68
2024-01-27T13:03:28.179Z,9.55
2024-01-27T13:05:31.097Z,9.96
2024-01-27T13:07:33.241Z,9.28
2024-01-27T13:09:36.169Z,8.12
2024-01-27T13:11:39.180Z,7.17
2024-01-27T13:13:45.567Z,6.50
2024-01-27T13:15:48.457Z,6.19
2024-01-27T13:17:50.637Z,7.25
2024-01-27T13:19:52.494Z,8.54
2024-01-27T13:21:54.229Z,9.46
2024-01-27T13:23:55.978Z,9.78
2024-01-27T13:26:08.647Z,9.03
2024-01-27T13:28:19.358Z,7.78
2024-01-27T13:30:21.205Z,6.95
2024-01-27T13:32:22.867Z,6.31
2024-01-27T13:34:24.656Z,6.10
2024-01-27T13:36:27.534Z,7.29
2024-01-27T13:38:29.257Z,8.64
2024-01-27T13:40:31.002Z,9.56
2024-01-27T13:42:32.804Z,10.00
2024-01-27T13:44:37.286Z,9.30
2024-01-27T13:46:39.431Z,8.20
2024-01-27T13:48:41.336Z,7.29
2024-01-27T13:50:43.298Z,6.59
2024-01-27T13:52:46.556Z,6.29
2024-01-27T13:54:48.225Z,7.40
2024-01-27T13:56:49.966Z,8.77
2024-01-27T13:58:52.854Z,9.57
2024-01-27T14:00:54.545Z,10.23
2024-01-27T14:02:56.484Z,10.40
2024-01-27T14:04:58.321Z,9.61
2024-01-27T14:07:04.424Z,8.60
2024-01-27T14:09:06.251Z,7.68
2024-01-27T14:11:08.189Z,6.98
2024-01-27T14:13:10.632Z,6.41
2024-01-27T14:15:13.420Z,6.29
2024-01-27T14:17:16.226Z,7.49
2024-01-27T14:19:18.028Z,8.78
2024-01-27T14:21:19.725Z,9.70
2024-01-27T14:23:21.524Z,10.16
2024-01-27T14:25:23.044Z,9.58
2024-01-27T14:27:27.640Z,8.49
2024-01-27T14:29:29.664Z,7.51
2024-01-27T14:31:32.044Z,6.78
2024-01-27T14:33:34.732Z,6.23
2024-01-27T14:35:36.408Z,6.06
2024-01-27T14:37:39.186Z,7.27
2024-01-27T14:39:46.071Z,8.70
2024-01-27T14:41:47.655Z,9.69
2024-01-27T14:43:50.968Z,10.23
2024-01-27T14:45:52.599Z,9.67
2024-01-27T14:47:57.806Z,8.64
2024-01-27T14:50:01.413Z,7.81
2024-01-27T14:52:03.143Z,7.15
2024-01-27T14:54:05.259Z,6.61
2024-01-27T14:56:07.180Z,6.16
2024-01-27T14:58:08.825Z,6.07
2024-01-27T15:00:11.464Z,7.36
2024-01-27T15:02:13.154Z,8.86
2024-01-27T15:04:15.507Z,9.89
2024-01-27T15:06:17.630Z,10.42
2024-01-27T15:08:20.366Z,9.80
2024-01-27T15:10:24.660Z,8.75
2024-01-27T15:12:26.985Z,7.86
2024-01-27T15:14:29.810Z,7.16
2024-01-27T15:16:33.586Z,6.61
2024-01-27T15:18:38.212Z,6.40
2024-01-27T15:20:40.000Z,7.59
2024-01-27T15:22:42.607Z,9.03
2024-01-27T15:24:44.268Z,10.08
2024-01-27T15:26:46.132Z,10.73
2024-01-27T15:28:48.671Z,10.98
2024-01-27T15:30:50.829Z,10.15
2024-01-27T15:32:52.681Z,9.06
2024-01-27T15:34:54.762Z,8.15
2024-01-27T15:36:56.719Z,7.44
2024-01-27T15:38:58.488Z,6.89
2024-01-27T15:41:00.537Z,6.43
2024-01-27T15:43:02.381Z,6.30
2024-01-27T15:45:05.908Z,7.46
2024-01-27T15:47:08.495Z,8.89
2024-01-27T15:49:10.082Z,9.95
2024-01-27T15:51:12.203Z,10.55
2024-01-27T15:53:13.932Z,10.80
2024-01-27T15:55:16.190Z,10.03
2024-01-27T15:57:18.151Z,8.95
2024-01-27T15:59:19.792Z,8.05
2024-01-27T16:01:21.473Z,7.37
2024-01-27T16:03:24.512Z,6.83
2024-01-27T16:05:26.319Z,6.36
2024-01-27T16:07:27.842Z,6.27
2024-01-27T16:09:32.400Z,7.50
2024-01-27T16:11:34.337Z,8.91
2024-01-27T16:13:37.437Z,9.79
2024-01-27T16:15:39.435Z,10.36
2024-01-27T16:17:41.098Z,10.49
2024-01-27T16:19:42.956Z,9.68
2024-01-27T16:21:44.811Z,8.59
2024-01-27T16:23:46.486Z,7.68
2024-01-27T16:25:48.161Z,6.94
2024-01-27T16:27:50.166Z,6.65
2024-01-27T16:29:52.483Z,7.79
2024-01-27T16:31:54.330Z,9.14
2024-01-27T16:33:56.173Z,10.01
2024-01-27T16:35:57.892Z,10.59
2024-01-27T16:37:59.637Z,10.69
2024-01-27T16:40:01.350Z,9.83
2024-01-27T16:42:03.827Z,8.79
2024-01-27T16:44:05.533Z,7.88
2024-01-27T16:46:09.873Z,7.17
2024-01-27T16:48:11.542Z,6.68
2024-01-27T16:50:13.504Z,7.54
2024-01-27T16:52:15.068Z,8.93
2024-01-27T16:54:16.957Z,9.95
2024-01-27T16:56:18.901Z,10.52
2024-01-27T16:58:20.489Z,10.80
2024-01-27T17:00:24.499Z,10.07
2024-01-27T17:02:26.390Z,8.92
2024-01-27T17:04:28.196Z,7.95
2024-01-27T17:06:29.790Z,7.20
2024-01-27T17:08:31.655Z,6.59
2024-01-27T17:10:33.301Z,6.35
2024-01-27T17:12:35.116Z,7.48
2024-01-27T17:14:36.823Z,8.94
2024-01-27T17:16:38.608Z,9.93
2024-01-27T17:18:40.199Z,10.59
2024-01-27T17:20:44.126Z,10.90
2024-01-27T17:22:47.110Z,10.18
2024-01-27T17:24:48.920Z,9.14
2024-01-27T17:26:50.618Z,8.25
2024-01-27T17:28:52.228Z,7.58
2024-01-27T17:30:53.784Z,7.05
2024-01-27T17:32:55.427Z,6.60
2024-01-27T17:34:57.359Z,6.45
2024-01-27T17:36:59.599Z,7.65
2024-01-27T17:39:01.168Z,9.17
2024-01-27T17:41:02.848Z,10.22
2024-01-27T17:43:04.568Z,10.88
2024-01-27T17:45:08.062Z,11.13
2024-01-27T17:47:09.814Z,10.37
2024-01-27T17:49:11.804Z,9.31
2024-01-27T17:51:13.865Z,8.44
2024-01-27T17:53:16.986Z,7.80
2024-01-27T17:55:18.805Z,7.28
2024-01-27T17:57:20.404Z,6.86
2024-01-27T17:59:25.151Z,6.76
2024-01-27T18:01:26.800Z,7.99
2024-01-27T18:03:28.731Z,9.47
2024-01-27T18:05:30.707Z,10.49
2024-01-27T18:07:32.613Z,11.23
2024-01-27T18:09:34.255Z,11.56
2024-01-27T18:11:35.884Z,10.81
2024-01-27T18:13:37.645Z,9.79
2024-01-27T18:15:39.593Z,8.92
2024-01-27T18:17:41.329Z,8.23
2024-01-27T18:19:43.045Z,7.70
2024-01-27T18:21:45.078Z,7.26
2024-01-27T18:23:47.236Z,6.91
2024-01-27T18:25:48.906Z,6.84
2024-01-27T18:27:50.649Z,8.12
2024-01-27T18:29:53.924Z,9.63
2024-01-27T18:31:55.841Z,10.66
2024-01-27T18:33:57.687Z,11.22
2024-01-27T18:35:59.937Z,11.48
2024-01-27T18:38:01.680Z,10.75
2024-01-27T18:40:05.946Z,9.69
2024-01-27T18:42:07.755Z,8.75
2024-01-27T18:44:10.822Z,8.02
2024-01-27T18:46:13.706Z,7.44
2024-01-27T18:48:15.607Z,6.98
2024-01-27T18:50:17.634Z,6.83
2024-01-27T18:52:19.262Z,8.02
2024-01-27T18:54:22.302Z,9.47
2024-01-27T18:56:23.913Z,10.54
2024-01-27T18:58:25.590Z,11.03
2024-01-27T19:00:27.667Z,10.34
2024-01-27T19:02:29.286Z,9.33
2024-01-27T19:04:31.065Z,8.44
2024-01-27T19:06:33.139Z,7.72
2024-01-27T19:08:35.566Z,7.15
2024-01-27T19:10:37.221Z,6.91
2024-01-27T19:12:38.918Z,8.05
2024-01-27T19:14:41.451Z,9.49
2024-01-27T19:16:43.547Z,10.47
2024-01-27T19:18:45.177Z,10.95
2024-01-27T19:20:46.801Z,10.36
2024-01-27T19:22:51.445Z,9.34
2024-01-27T19:24:53.189Z,8.41
2024-01-27T19:26:54.792Z,7.71
2024-01-27T19:28:56.634Z,7.17
2024-01-27T19:30:58.713Z,6.75
2024-01-27T19:33:00.715Z,6.57
2024-01-27T19:35:03.411Z,7.68
2024-01-27T19:37:05.083Z,9.19
2024-01-27T19:39:06.709Z,10.27
2024-01-27T19:41:16.161Z,10.85
2024-01-27T19:43:20.882Z,10.17
2024-01-27T19:45:22.694Z,9.19
2024-01-27T19:47:24.492Z,8.37
2024-01-27T19:49:26.142Z,7.73
2024-01-27T19:51:27.859Z,7.24
2024-01-27T19:53:29.741Z,6.85
2024-01-27T19:55:31.393Z,6.52
2024-01-27T19:57:33.090Z,6.37
2024-01-27T19:59:34.802Z,7.47
2024-01-27T20:01:36.614Z,9.08
2024-01-27T20:03:38.381Z,10.25
2024-01-27T20:05:40.280Z,10.78
2024-01-27T20:07:41.928Z,10.09
2024-01-27T20:09:43.492Z,9.17
2024-01-27T20:11:47.427Z,8.39
2024-01-27T20:13:49.049Z,7.79
2024-01-27T20:15:50.783Z,7.28
2024-01-27T20:17:52.878Z,6.87
2024-01-27T20:19:56.324Z,6.54
2024-01-27T20:21:58.616Z,6.26
2024-01-27T20:24:00.226Z,6.12
2024-01-27T20:26:01.924Z,7.14
2024-01-27T20:28:03.981Z,8.84
2024-01-27T20:30:07.627Z,10.13
2024-01-27T20:32:09.652Z,10.77
2024-01-27T20:34:12.355Z,10.23
2024-01-27T20:36:14.454Z,9.29
2024-01-27T20:38:16.137Z,8.46
2024-01-27T20:40:18.270Z,7.84
2024-01-27T20:42:19.913Z,7.37
2024-01-27T20:44:21.548Z,7.00
2024-01-27T20:46:23.161Z,6.69
2024-01-27T20:48:24.942Z,6.43
2024-01-27T20:50:27.020Z,6.19
2024-01-27T20:52:28.887Z,5.96
2024-01-27T20:54:30.553Z,5.80
2024-01-27T20:56:33.805Z,6.53
2024-01-27T20:58:38.223Z,8.20
2024-01-27T21:00:40.043Z,9.55
2024-01-27T21:02:42.743Z,10.50
2024-01-27T21:04:44.991Z,10.96
2024-01-27T21:06:46.992Z,10.33
2024-01-27T21:08:48.924Z,9.37
2024-01-27T21:10:50.571Z,8.57
2024-01-27T21:12:52.381Z,7.98
2024-01-27T21:14:54.095Z,7.49
2024-01-27T21:16:55.775Z,7.07
2024-01-27T21:18:57.457Z,6.72
2024-01-27T21:21:00.297Z,6.42
2024-01-27T21:23:03.391Z,6.13
2024-01-27T21:25:05.617Z,5.91
2024-01-27T21:27:07.294Z,5.71
2024-01-27T21:29:09.667Z,5.74
2024-01-27T21:31:11.726Z,7.09
2024-01-27T21:33:13.549Z,8.81
2024-01-27T21:35:15.559Z,10.05
2024-01-27T21:37:17.295Z,10.67
2024-01-27T21:39:19.051Z,10.03
2024-01-27T21:41:20.775Z,9.10
2024-01-27T21:43:22.288Z,8.31
2024-01-27T21:45:24.001Z,7.67
2024-01-27T21:47:25.840Z,7.18
2024-01-27T21:49:27.430Z,6.80
2024-01-27T21:51:29.096Z,6.46
2024-01-27T21:53:30.695Z,6.17
2024-01-27T21:55:33.811Z,5.93
2024-01-27T21:57:35.510Z,5.71
2024-01-27T21:59:37.257Z,5.53
2024-01-27T22:01:42.122Z,5.38
2024-01-27T22:03:44.532Z,5.49
2024-01-27T22:05:46.381Z,6.98
2024-01-27T22:07:50.326Z,8.76
2024-01-27T22:09:53.135Z,9.99
2024-01-27T22:11:55.719Z,10.53
2024-01-27T22:13:59.340Z,9.91
2024-01-27T22:16:02.680Z,8.97
2024-01-27T22:18:05.014Z,8.16
2024-01-27T22:20:08.803Z,7.57
2024-01-27T22:22:10.448Z,7.11
2024-01-27T22:24:12.039Z,6.72
2024-01-27T22:26:13.886Z,6.39
2024-01-27T22:28:16.868Z,6.13
2024-01-27T22:30:18.598Z,5.88
2024-01-27T22:32:20.327Z,5.64
2024-01-27T22:34:22.691Z,5.43
2024-01-27T22:36:24.575Z,5.24
2024-01-27T22:38:26.331Z,5.32
2024-01-27T22:40:28.062Z,6.72
2024-01-27T22:42:32.072Z,8.40
2024-01-27T22:44:33.775Z,9.66
2024-01-27T22:46:35.890Z,10.29
2024-01-27T22:48:37.655Z,9.67
2024-01-27T22:50:39.419Z,8.69
2024-01-27T22:52:41.200Z,7.88
2024-01-27T22:54:43.358Z,7.28
2024-01-27T22:56:44.971Z,6.80
2024-01-27T22:58:46.521Z,6.43
2024-01-27T23:00:48.471Z,6.12
2024-01-27T23:02:50.255Z,5.84
2024-01-27T23:04:51.857Z,5.57
2024-01-27T23:06:53.847Z,5.32
2024-01-27T23:08:55.596Z,5.12
2024-01-27T23:10:57.255Z,5.19
2024-01-27T23:12:59.957Z,6.55
2024-01-27T23:15:01.645Z,8.16
2024-01-27T23:17:03.225Z,9.36
2024-01-27T23:19:05.300Z,9.98
2024-01-27T23:21:07.307Z,9.39
2024-01-27T23:23:09.007Z,8.41
2024-01-27T23:25:10.780Z,7.59
2024-01-27T23:27:12.474Z,6.98
2024-01-27T23:29:14.196Z,6.50
2024-01-27T23:31:15.940Z,6.07
2024-01-27T23:33:19.522Z,5.72
2024-01-27T23:35:23.591Z,5.41
2024-01-27T23:37:25.495Z,5.14
2024-01-27T23:39:27.163Z,4.88
2024-01-27T23:41:28.781Z,4.91
2024-01-27T23:43:30.467Z,6.26
2024-01-27T23:45:32.526Z,7.88
2024-01-27T23:47:34.899Z,9.06
2024-01-27T23:49:37.042Z,9.64
2024-01-27T23:51:40.063Z,9.05
2024-01-27T23:53:42.097Z,8.06
2024-01-27T23:55:44.873Z,7.25
2024-01-27T23:57:51.117Z,6.64
2024-01-27T23:59:52.990Z,6.12
